sensor_id;sensor_type;location;lat;lon;timestamp;P1;durP1;ratioP1;P2;durP2;ratioP2
6356;SDS011;3211;53.452;-2.264;2023-03-14T00:00:10;1.13;;;0.90;;
6356;SDS011;3211;53.452;-2.264;2023-03-14T00:02:39;1.00;;;0.80;;
6356;SDS011;3211;53.452;-2.264;2023-03-14T00:05:09;1.40;;;1.00;;
6356;SDS011;3211;53.452;-2.264;2023-03-14T00:07:37;1.33;;;0.93;;
6356;SDS011;3211;53.452;-2.264;2023-03-14T00:10:05;1.17;;;1.07;;
6356;SDS011;3211;53.452;-2.264;2023-03-14T00:12:34;1.40;;;1.00;;
6356;SDS011;3211;53.452;-2.264;2023-03-14T00:15:01;0.90;;;0.80;;
6356;SDS011;3211;53.452;-2.264;2023-03-14T00:17:29;1.23;;;1.00;;
6356;SDS011;3211;53.452;-2.264;2023-03-14T00:19:57;1.10;;;0.90;;
6356;SDS011;3211;53.452;-2.264;2023-03-14T00:22:34;1.30;;;1.00;;
6356;SDS011;3211;53.452;-2.264;2023-03-14T00:25:02;1.10;;;1.00;;
6356;SDS011;3211;53.452;-2.264;2023-03-14T00:27:30;1.50;;;1.07;;
6356;SDS011;3211;53.452;-2.264;2023-03-14T00:29:57;1.10;;;1.00;;
6356;SDS011;3211;53.452;-2.264;2023-03-14T00:32:24;1.20;;;1.10;;
6356;SDS011;3211;53.452;-2.264;2023-03-14T00:34:51;1.50;;;1.10;;
6356;SDS011;3211;53.452;-2.264;2023-03-14T00:37:18;1.17;;;0.90;;
6356;SDS011;3211;53.452;-2.264;2023-03-14T00:39:47;2.10;;;1.00;;
6356;SDS011;3211;53.452;-2.264;2023-03-14T00:42:13;1.10;;;0.90;;
6356;SDS011;3211;53.452;-2.264;2023-03-14T00:44:40;3.07;;;1.10;;
6356;SDS011;3211;53.452;-2.264;2023-03-14T00:47:07;1.27;;;1.17;;
6356;SDS011;3211;53.452;-2.264;2023-03-14T00:49:34;1.40;;;1.00;;
6356;SDS011;3211;53.452;-2.264;2023-03-14T00:52:01;1.10;;;1.00;;
6356;SDS011;3211;53.452;-2.264;2023-03-14T00:54:28;1.10;;;1.00;;
6356;SDS011;3211;53.452;-2.264;2023-03-14T00:56:57;1.20;;;1.10;;
6356;SDS011;3211;53.452;-2.264;2023-03-14T00:59:23;1.30;;;1.00;;
6356;SDS011;3211;53.452;-2.264;2023-03-14T01:01:50;1.00;;;0.90;;
6356;SDS011;3211;53.452;-2.264;2023-03-14T01:04:17;1.10;;;0.90;;
6356;SDS011;3211;53.452;-2.264;2023-03-14T01:06:44;2.93;;;0.97;;
6356;SDS011;3211;53.452;-2.264;2023-03-14T01:09:11;1.37;;;1.00;;
6356;SDS011;3211;53.452;-2.264;2023-03-14T01:11:38;1.23;;;1.10;;
6356;SDS011;3211;53.452;-2.264;2023-03-14T01:14:06;1.10;;;0.90;;
6356;SDS011;3211;53.452;-2.264;2023-03-14T01:16:34;2.07;;;1.00;;
6356;SDS011;3211;53.452;-2.264;2023-03-14T01:19:01;1.20;;;1.00;;
6356;SDS011;3211;53.452;-2.264;2023-03-14T01:21:30;1.07;;;0.97;;
6356;SDS011;3211;53.452;-2.264;2023-03-14T01:23:59;1.00;;;0.90;;
6356;SDS011;3211;53.452;-2.264;2023-03-14T01:26:28;2.40;;;0.97;;
6356;SDS011;3211;53.452;-2.264;2023-03-14T01:28:57;1.20;;;0.90;;
6356;SDS011;3211;53.452;-2.264;2023-03-14T01:31:26;1.10;;;1.00;;
6356;SDS011;3211;53.452;-2.264;2023-03-14T01:33:53;1.23;;;1.13;;
6356;SDS011;3211;53.452;-2.264;2023-03-14T01:36:20;1.17;;;0.90;;
6356;SDS011;3211;53.452;-2.264;2023-03-14T01:38:47;1.10;;;1.00;;
6356;SDS011;3211;53.452;-2.264;2023-03-14T01:41:14;1.00;;;0.80;;
6356;SDS011;3211;53.452;-2.264;2023-03-14T01:43:43;1.10;;;1.00;;
6356;SDS011;3211;53.452;-2.264;2023-03-14T01:46:21;2.13;;;1.00;;
6356;SDS011;3211;53.452;-2.264;2023-03-14T01:48:56;1.93;;;1.10;;
6356;SDS011;3211;53.452;-2.264;2023-03-14T01:51:29;1.43;;;1.20;;
6356;SDS011;3211;53.452;-2.264;2023-03-14T01:54:02;2.07;;;1.30;;
6356;SDS011;3211;53.452;-2.264;2023-03-14T01:56:35;1.97;;;0.93;;
6356;SDS011;3211;53.452;-2.264;2023-03-14T01:59:03;2.70;;;0.97;;
6356;SDS011;3211;53.452;-2.264;2023-03-14T02:01:32;3.07;;;1.20;;
6356;SDS011;3211;53.452;-2.264;2023-03-14T02:04:02;1.73;;;1.00;;
6356;SDS011;3211;53.452;-2.264;2023-03-14T02:06:34;1.00;;;0.90;;
6356;SDS011;3211;53.452;-2.264;2023-03-14T02:09:06;1.90;;;1.20;;
6356;SDS011;3211;53.452;-2.264;2023-03-14T02:11:33;5.80;;;1.23;;
6356;SDS011;3211;53.452;-2.264;2023-03-14T02:14:00;1.93;;;1.30;;
6356;SDS011;3211;53.452;-2.264;2023-03-14T02:16:28;3.47;;;1.63;;
6356;SDS011;3211;53.452;-2.264;2023-03-14T02:18:56;8.73;;;1.63;;
6356;SDS011;3211;53.452;-2.264;2023-03-14T02:21:25;3.53;;;1.30;;
6356;SDS011;3211;53.452;-2.264;2023-03-14T02:24:05;1.60;;;1.20;;
6356;SDS011;3211;53.452;-2.264;2023-03-14T02:26:40;3.63;;;1.00;;
6356;SDS011;3211;53.452;-2.264;2023-03-14T02:29:13;1.20;;;1.10;;
6356;SDS011;3211;53.452;-2.264;2023-03-14T02:31:39;2.63;;;1.20;;
6356;SDS011;3211;53.452;-2.264;2023-03-14T02:34:06;2.67;;;1.10;;
6356;SDS011;3211;53.452;-2.264;2023-03-14T02:36:34;2.60;;;1.10;;
6356;SDS011;3211;53.452;-2.264;2023-03-14T02:39:03;1.33;;;1.07;;
6356;SDS011;3211;53.452;-2.264;2023-03-14T02:41:34;2.80;;;1.10;;
6356;SDS011;3211;53.452;-2.264;2023-03-14T02:44:01;1.53;;;1.03;;
6356;SDS011;3211;53.452;-2.264;2023-03-14T02:46:29;1.50;;;1.10;;
6356;SDS011;3211;53.452;-2.264;2023-03-14T02:48:57;1.60;;;1.00;;
6356;SDS011;3211;53.452;-2.264;2023-03-14T02:51:27;1.40;;;1.10;;
6356;SDS011;3211;53.452;-2.264;2023-03-14T02:53:55;2.00;;;1.40;;
6356;SDS011;3211;53.452;-2.264;2023-03-14T02:56:22;3.00;;;1.30;;
6356;SDS011;3211;53.452;-2.264;2023-03-14T02:58:49;1.67;;;1.20;;
6356;SDS011;3211;53.452;-2.264;2023-03-14T03:01:16;1.30;;;1.07;;
6356;SDS011;3211;53.452;-2.264;2023-03-14T03:03:44;1.80;;;1.33;;
6356;SDS011;3211;53.452;-2.264;2023-03-14T03:06:11;3.00;;;1.43;;
6356;SDS011;3211;53.452;-2.264;2023-03-14T03:08:38;2.83;;;1.37;;
6356;SDS011;3211;53.452;-2.264;2023-03-14T03:11:05;2.10;;;1.40;;
6356;SDS011;3211;53.452;-2.264;2023-03-14T03:13:33;5.03;;;1.50;;
6356;SDS011;3211;53.452;-2.264;2023-03-14T03:16:00;3.13;;;1.80;;
6356;SDS011;3211;53.452;-2.264;2023-03-14T03:18:27;1.90;;;1.30;;
6356;SDS011;3211;53.452;-2.264;2023-03-14T03:20:55;2.30;;;1.30;;
6356;SDS011;3211;53.452;-2.264;2023-03-14T03:23:26;3.97;;;1.37;;
6356;SDS011;3211;53.452;-2.264;2023-03-14T03:25:53;2.00;;;1.30;;
6356;SDS011;3211;53.452;-2.264;2023-03-14T03:28:20;2.13;;;1.00;;
6356;SDS011;3211;53.452;-2.264;2023-03-14T03:30:46;2.43;;;1.20;;
6356;SDS011;3211;53.452;-2.264;2023-03-14T03:33:13;4.40;;;1.40;;
6356;SDS011;3211;53.452;-2.264;2023-03-14T03:35:44;1.50;;;1.20;;
6356;SDS011;3211;53.452;-2.264;2023-03-14T03:38:13;1.63;;;1.20;;
6356;SDS011;3211;53.452;-2.264;2023-03-14T03:40:40;3.67;;;1.20;;
6356;SDS011;3211;53.452;-2.264;2023-03-14T03:43:08;3.10;;;1.30;;
6356;SDS011;3211;53.452;-2.264;2023-03-14T03:45:35;3.53;;;1.30;;
6356;SDS011;3211;53.452;-2.264;2023-03-14T03:48:02;2.60;;;1.20;;
6356;SDS011;3211;53.452;-2.264;2023-03-14T03:50:29;4.80;;;1.50;;
6356;SDS011;3211;53.452;-2.264;2023-03-14T03:52:56;4.50;;;1.40;;
6356;SDS011;3211;53.452;-2.264;2023-03-14T03:55:24;2.03;;;1.20;;
6356;SDS011;3211;53.452;-2.264;2023-03-14T03:57:53;3.17;;;1.30;;
6356;SDS011;3211;53.452;-2.264;2023-03-14T04:00:20;4.30;;;1.57;;
6356;SDS011;3211;53.452;-2.264;2023-03-14T04:02:46;1.30;;;1.17;;
6356;SDS011;3211;53.452;-2.264;2023-03-14T04:05:13;1.90;;;1.47;;
6356;SDS011;3211;53.452;-2.264;2023-03-14T04:07:40;2.90;;;1.30;;
6356;SDS011;3211;53.452;-2.264;2023-03-14T04:10:08;3.53;;;1.30;;
6356;SDS011;3211;53.452;-2.264;2023-03-14T04:12:37;5.13;;;1.60;;
6356;SDS011;3211;53.452;-2.264;2023-03-14T04:15:04;3.33;;;1.40;;
6356;SDS011;3211;53.452;-2.264;2023-03-14T04:17:32;3.40;;;1.40;;
6356;SDS011;3211;53.452;-2.264;2023-03-14T04:19:58;7.23;;;1.60;;
6356;SDS011;3211;53.452;-2.264;2023-03-14T04:22:25;4.27;;;1.50;;
6356;SDS011;3211;53.452;-2.264;2023-03-14T04:24:52;6.80;;;1.60;;
6356;SDS011;3211;53.452;-2.264;2023-03-14T04:27:19;4.10;;;1.50;;
6356;SDS011;3211;53.452;-2.264;2023-03-14T04:29:48;7.53;;;2.37;;
6356;SDS011;3211;53.452;-2.264;2023-03-14T04:32:15;8.50;;;2.10;;
6356;SDS011;3211;53.452;-2.264;2023-03-14T04:34:41;6.30;;;2.33;;
6356;SDS011;3211;53.452;-2.264;2023-03-14T04:37:08;7.20;;;1.77;;
6356;SDS011;3211;53.452;-2.264;2023-03-14T04:39:35;6.40;;;1.70;;
6356;SDS011;3211;53.452;-2.264;2023-03-14T04:42:02;6.13;;;2.10;;
6356;SDS011;3211;53.452;-2.264;2023-03-14T04:44:30;5.30;;;2.13;;
6356;SDS011;3211;53.452;-2.264;2023-03-14T04:46:58;11.20;;;2.70;;
6356;SDS011;3211;53.452;-2.264;2023-03-14T04:49:25;9.43;;;2.70;;
6356;SDS011;3211;53.452;-2.264;2023-03-14T04:51:52;6.53;;;2.20;;
6356;SDS011;3211;53.452;-2.264;2023-03-14T04:54:18;8.63;;;2.33;;
6356;SDS011;3211;53.452;-2.264;2023-03-14T04:56:45;5.13;;;2.30;;
6356;SDS011;3211;53.452;-2.264;2023-03-14T04:59:12;7.97;;;1.87;;
6356;SDS011;3211;53.452;-2.264;2023-03-14T05:01:39;7.17;;;2.20;;
6356;SDS011;3211;53.452;-2.264;2023-03-14T05:04:08;9.03;;;2.80;;
6356;SDS011;3211;53.452;-2.264;2023-03-14T05:06:34;12.73;;;2.67;;
6356;SDS011;3211;53.452;-2.264;2023-03-14T05:09:01;8.67;;;2.70;;
6356;SDS011;3211;53.452;-2.264;2023-03-14T05:11:30;10.37;;;3.43;;
6356;SDS011;3211;53.452;-2.264;2023-03-14T05:13:57;7.03;;;2.20;;
6356;SDS011;3211;53.452;-2.264;2023-03-14T05:16:24;5.30;;;2.73;;
6356;SDS011;3211;53.452;-2.264;2023-03-14T05:18:51;7.47;;;2.07;;
6356;SDS011;3211;53.452;-2.264;2023-03-14T05:21:19;10.77;;;2.70;;
6356;SDS011;3211;53.452;-2.264;2023-03-14T05:23:46;6.57;;;2.07;;
6356;SDS011;3211;53.452;-2.264;2023-03-14T05:26:13;7.57;;;2.10;;
6356;SDS011;3211;53.452;-2.264;2023-03-14T05:28:41;9.10;;;2.90;;
6356;SDS011;3211;53.452;-2.264;2023-03-14T05:31:09;6.23;;;2.53;;
6356;SDS011;3211;53.452;-2.264;2023-03-14T05:33:36;8.00;;;2.40;;
6356;SDS011;3211;53.452;-2.264;2023-03-14T05:36:03;5.40;;;2.30;;
6356;SDS011;3211;53.452;-2.264;2023-03-14T05:38:32;9.03;;;2.13;;
6356;SDS011;3211;53.452;-2.264;2023-03-14T05:40:59;10.63;;;2.47;;
6356;SDS011;3211;53.452;-2.264;2023-03-14T05:43:26;7.00;;;1.97;;
6356;SDS011;3211;53.452;-2.264;2023-03-14T05:45:53;7.13;;;2.07;;
6356;SDS011;3211;53.452;-2.264;2023-03-14T05:48:20;5.83;;;2.13;;
6356;SDS011;3211;53.452;-2.264;2023-03-14T05:50:47;6.70;;;2.43;;
6356;SDS011;3211;53.452;-2.264;2023-03-14T05:53:14;13.10;;;2.77;;
6356;SDS011;3211;53.452;-2.264;2023-03-14T05:55:42;9.30;;;2.77;;
6356;SDS011;3211;53.452;-2.264;2023-03-14T05:58:09;5.00;;;2.07;;
6356;SDS011;3211;53.452;-2.264;2023-03-14T06:00:36;10.50;;;2.50;;
6356;SDS011;3211;53.452;-2.264;2023-03-14T06:03:03;8.40;;;2.23;;
6356;SDS011;3211;53.452;-2.264;2023-03-14T06:05:30;7.67;;;2.57;;
6356;SDS011;3211;53.452;-2.264;2023-03-14T06:07:57;8.57;;;2.33;;
6356;SDS011;3211;53.452;-2.264;2023-03-14T06:10:23;9.73;;;2.27;;
6356;SDS011;3211;53.452;-2.264;2023-03-14T06:12:52;8.83;;;2.50;;
6356;SDS011;3211;53.452;-2.264;2023-03-14T06:15:19;10.57;;;2.30;;
6356;SDS011;3211;53.452;-2.264;2023-03-14T06:17:46;6.73;;;2.50;;
6356;SDS011;3211;53.452;-2.264;2023-03-14T06:20:13;7.87;;;2.63;;
6356;SDS011;3211;53.452;-2.264;2023-03-14T06:22:40;7.40;;;2.30;;
6356;SDS011;3211;53.452;-2.264;2023-03-14T06:25:07;6.77;;;2.60;;
6356;SDS011;3211;53.452;-2.264;2023-03-14T06:27:35;10.73;;;3.17;;
6356;SDS011;3211;53.452;-2.264;2023-03-14T06:30:03;10.63;;;2.50;;
6356;SDS011;3211;53.452;-2.264;2023-03-14T06:32:31;8.17;;;2.70;;
6356;SDS011;3211;53.452;-2.264;2023-03-14T06:34:58;6.80;;;2.43;;
6356;SDS011;3211;53.452;-2.264;2023-03-14T06:37:26;14.90;;;3.20;;
6356;SDS011;3211;53.452;-2.264;2023-03-14T06:39:53;11.17;;;2.30;;
6356;SDS011;3211;53.452;-2.264;2023-03-14T06:42:20;10.73;;;2.40;;
6356;SDS011;3211;53.452;-2.264;2023-03-14T06:44:48;14.10;;;2.53;;
6356;SDS011;3211;53.452;-2.264;2023-03-14T06:47:16;8.70;;;2.00;;
6356;SDS011;3211;53.452;-2.264;2023-03-14T06:49:43;6.27;;;2.60;;
6356;SDS011;3211;53.452;-2.264;2023-03-14T06:52:10;11.60;;;2.93;;
6356;SDS011;3211;53.452;-2.264;2023-03-14T06:54:37;8.90;;;2.10;;
6356;SDS011;3211;53.452;-2.264;2023-03-14T06:57:04;11.73;;;2.73;;
6356;SDS011;3211;53.452;-2.264;2023-03-14T06:59:31;11.07;;;2.10;;
6356;SDS011;3211;53.452;-2.264;2023-03-14T07:01:58;10.60;;;3.00;;
6356;SDS011;3211;53.452;-2.264;2023-03-14T07:04:26;9.63;;;2.57;;
6356;SDS011;3211;53.452;-2.264;2023-03-14T07:06:53;7.43;;;3.20;;
6356;SDS011;3211;53.452;-2.264;2023-03-14T07:09:20;10.20;;;3.60;;
6356;SDS011;3211;53.452;-2.264;2023-03-14T07:11:47;9.93;;;3.20;;
6356;SDS011;3211;53.452;-2.264;2023-03-14T07:14:14;5.93;;;2.77;;
6356;SDS011;3211;53.452;-2.264;2023-03-14T07:16:40;12.30;;;3.03;;
6356;SDS011;3211;53.452;-2.264;2023-03-14T07:19:07;8.57;;;2.10;;
6356;SDS011;3211;53.452;-2.264;2023-03-14T07:21:36;9.57;;;2.90;;
6356;SDS011;3211;53.452;-2.264;2023-03-14T07:24:03;5.67;;;2.27;;
6356;SDS011;3211;53.452;-2.264;2023-03-14T07:26:30;14.27;;;3.23;;
6356;SDS011;3211;53.452;-2.264;2023-03-14T07:28:57;9.43;;;2.40;;
6356;SDS011;3211;53.452;-2.264;2023-03-14T07:31:24;8.43;;;2.83;;
6356;SDS011;3211;53.452;-2.264;2023-03-14T07:33:50;10.27;;;2.77;;
6356;SDS011;3211;53.452;-2.264;2023-03-14T07:36:17;17.43;;;3.10;;
6356;SDS011;3211;53.452;-2.264;2023-03-14T07:38:46;20.53;;;2.83;;
6356;SDS011;3211;53.452;-2.264;2023-03-14T07:41:13;9.83;;;3.67;;
6356;SDS011;3211;53.452;-2.264;2023-03-14T07:43:40;13.20;;;3.37;;
6356;SDS011;3211;53.452;-2.264;2023-03-14T07:46:07;8.30;;;2.67;;
6356;SDS011;3211;53.452;-2.264;2023-03-14T07:48:34;7.87;;;2.97;;
6356;SDS011;3211;53.452;-2.264;2023-03-14T07:51:01;8.30;;;2.87;;
6356;SDS011;3211;53.452;-2.264;2023-03-14T07:53:28;4.30;;;2.13;;
6356;SDS011;3211;53.452;-2.264;2023-03-14T07:55:57;9.33;;;2.37;;
6356;SDS011;3211;53.452;-2.264;2023-03-14T07:58:24;13.43;;;3.17;;
6356;SDS011;3211;53.452;-2.264;2023-03-14T08:00:51;7.40;;;2.40;;
6356;SDS011;3211;53.452;-2.264;2023-03-14T08:03:18;11.77;;;2.80;;
6356;SDS011;3211;53.452;-2.264;2023-03-14T08:05:47;11.13;;;2.93;;
6356;SDS011;3211;53.452;-2.264;2023-03-14T08:08:14;15.37;;;3.03;;
6356;SDS011;3211;53.452;-2.264;2023-03-14T08:10:41;10.00;;;2.43;;
6356;SDS011;3211;53.452;-2.264;2023-03-14T08:13:09;11.37;;;2.57;;
6356;SDS011;3211;53.452;-2.264;2023-03-14T08:15:37;7.00;;;3.07;;
6356;SDS011;3211;53.452;-2.264;2023-03-14T08:18:04;22.47;;;2.97;;
6356;SDS011;3211;53.452;-2.264;2023-03-14T08:20:32;15.13;;;2.47;;
6356;SDS011;3211;53.452;-2.264;2023-03-14T08:22:59;9.63;;;2.30;;
6356;SDS011;3211;53.452;-2.264;2023-03-14T08:25:27;5.10;;;2.10;;
6356;SDS011;3211;53.452;-2.264;2023-03-14T08:27:55;11.53;;;2.53;;
6356;SDS011;3211;53.452;-2.264;2023-03-14T08:30:23;14.37;;;3.13;;
6356;SDS011;3211;53.452;-2.264;2023-03-14T08:32:50;9.73;;;2.70;;
6356;SDS011;3211;53.452;-2.264;2023-03-14T08:35:17;15.43;;;3.40;;
6356;SDS011;3211;53.452;-2.264;2023-03-14T08:37:44;8.57;;;2.60;;
6356;SDS011;3211;53.452;-2.264;2023-03-14T08:40:12;9.43;;;2.50;;
6356;SDS011;3211;53.452;-2.264;2023-03-14T08:42:40;7.90;;;2.43;;
6356;SDS011;3211;53.452;-2.264;2023-03-14T08:45:08;10.87;;;2.77;;
6356;SDS011;3211;53.452;-2.264;2023-03-14T08:47:38;8.60;;;2.80;;
6356;SDS011;3211;53.452;-2.264;2023-03-14T08:50:06;10.17;;;2.60;;
6356;SDS011;3211;53.452;-2.264;2023-03-14T08:52:34;12.07;;;3.17;;
6356;SDS011;3211;53.452;-2.264;2023-03-14T08:55:02;12.17;;;2.90;;
6356;SDS011;3211;53.452;-2.264;2023-03-14T08:57:30;5.90;;;2.97;;
6356;SDS011;3211;53.452;-2.264;2023-03-14T08:59:57;12.13;;;3.17;;
6356;SDS011;3211;53.452;-2.264;2023-03-14T09:02:24;7.97;;;2.73;;
6356;SDS011;3211;53.452;-2.264;2023-03-14T09:04:53;12.33;;;3.17;;
6356;SDS011;3211;53.452;-2.264;2023-03-14T09:07:20;14.40;;;3.20;;
6356;SDS011;3211;53.452;-2.264;2023-03-14T09:09:47;16.03;;;3.70;;
6356;SDS011;3211;53.452;-2.264;2023-03-14T09:12:14;9.13;;;2.00;;
6356;SDS011;3211;53.452;-2.264;2023-03-14T09:14:41;8.33;;;3.03;;
6356;SDS011;3211;53.452;-2.264;2023-03-14T09:17:08;8.07;;;2.67;;
6356;SDS011;3211;53.452;-2.264;2023-03-14T09:19:35;7.17;;;2.13;;
6356;SDS011;3211;53.452;-2.264;2023-03-14T09:22:03;9.00;;;2.33;;
6356;SDS011;3211;53.452;-2.264;2023-03-14T09:24:30;9.80;;;2.50;;
6356;SDS011;3211;53.452;-2.264;2023-03-14T09:26:57;14.73;;;3.13;;
6356;SDS011;3211;53.452;-2.264;2023-03-14T09:29:24;10.20;;;3.27;;
6356;SDS011;3211;53.452;-2.264;2023-03-14T09:31:51;6.40;;;2.60;;
6356;SDS011;3211;53.452;-2.264;2023-03-14T09:34:18;8.63;;;2.87;;
6356;SDS011;3211;53.452;-2.264;2023-03-14T09:36:45;9.50;;;2.70;;
6356;SDS011;3211;53.452;-2.264;2023-03-14T09:39:13;10.23;;;2.53;;
6356;SDS011;3211;53.452;-2.264;2023-03-14T09:41:42;10.37;;;2.80;;
6356;SDS011;3211;53.452;-2.264;2023-03-14T09:44:13;11.10;;;3.27;;
6356;SDS011;3211;53.452;-2.264;2023-03-14T09:46:42;15.83;;;3.50;;
6356;SDS011;3211;53.452;-2.264;2023-03-14T09:49:15;16.57;;;3.87;;
6356;SDS011;3211;53.452;-2.264;2023-03-14T09:51:47;8.00;;;3.10;;
6356;SDS011;3211;53.452;-2.264;2023-03-14T09:54:22;11.80;;;3.50;;
6356;SDS011;3211;53.452;-2.264;2023-03-14T09:56:56;14.10;;;3.20;;
6356;SDS011;3211;53.452;-2.264;2023-03-14T09:59:23;16.90;;;4.43;;
6356;SDS011;3211;53.452;-2.264;2023-03-14T10:01:51;9.83;;;3.80;;
6356;SDS011;3211;53.452;-2.264;2023-03-14T10:04:20;13.97;;;3.60;;
6356;SDS011;3211;53.452;-2.264;2023-03-14T10:06:49;16.33;;;3.83;;
6356;SDS011;3211;53.452;-2.264;2023-03-14T10:09:17;12.43;;;2.93;;
6356;SDS011;3211;53.452;-2.264;2023-03-14T10:11:51;5.20;;;2.40;;
6356;SDS011;3211;53.452;-2.264;2023-03-14T10:14:28;8.03;;;2.47;;
6356;SDS011;3211;53.452;-2.264;2023-03-14T10:16:59;9.17;;;2.77;;
6356;SDS011;3211;53.452;-2.264;2023-03-14T10:19:32;11.27;;;2.50;;
6356;SDS011;3211;53.452;-2.264;2023-03-14T10:22:01;10.93;;;2.60;;
6356;SDS011;3211;53.452;-2.264;2023-03-14T10:24:31;10.20;;;2.70;;
6356;SDS011;3211;53.452;-2.264;2023-03-14T10:26:59;3.90;;;2.33;;
6356;SDS011;3211;53.452;-2.264;2023-03-14T10:29:28;7.97;;;2.40;;
6356;SDS011;3211;53.452;-2.264;2023-03-14T10:31:57;9.47;;;3.00;;
6356;SDS011;3211;53.452;-2.264;2023-03-14T10:34:27;12.77;;;2.83;;
6356;SDS011;3211;53.452;-2.264;2023-03-14T10:36:56;7.10;;;2.33;;
6356;SDS011;3211;53.452;-2.264;2023-03-14T10:39:26;12.70;;;2.40;;
6356;SDS011;3211;53.452;-2.264;2023-03-14T10:42:04;6.90;;;2.30;;
6356;SDS011;3211;53.452;-2.264;2023-03-14T10:44:38;5.43;;;1.60;;
6356;SDS011;3211;53.452;-2.264;2023-03-14T10:47:05;10.33;;;2.70;;
6356;SDS011;3211;53.452;-2.264;2023-03-14T10:49:41;6.80;;;1.90;;
6356;SDS011;3211;53.452;-2.264;2023-03-14T10:52:15;11.53;;;2.50;;
6356;SDS011;3211;53.452;-2.264;2023-03-14T10:54:49;7.63;;;1.80;;
6356;SDS011;3211;53.452;-2.264;2023-03-14T10:57:22;8.43;;;1.83;;
6356;SDS011;3211;53.452;-2.264;2023-03-14T10:59:50;8.53;;;2.13;;
6356;SDS011;3211;53.452;-2.264;2023-03-14T11:02:23;8.97;;;2.23;;
6356;SDS011;3211;53.452;-2.264;2023-03-14T11:05:03;7.00;;;1.77;;
6356;SDS011;3211;53.452;-2.264;2023-03-14T11:07:42;5.53;;;3.03;;
6356;SDS011;3211;53.452;-2.264;2023-03-14T11:10:14;9.80;;;2.50;;
6356;SDS011;3211;53.452;-2.264;2023-03-14T11:12:48;4.23;;;1.70;;
6356;SDS011;3211;53.452;-2.264;2023-03-14T11:15:27;6.63;;;1.87;;
6356;SDS011;3211;53.452;-2.264;2023-03-14T11:20:59;6.20;;;2.57;;
6356;SDS011;3211;53.452;-2.264;2023-03-14T11:23:37;4.90;;;2.40;;
6356;SDS011;3211;53.452;-2.264;2023-03-14T11:26:13;8.77;;;2.20;;
6356;SDS011;3211;53.452;-2.264;2023-03-14T11:28:52;10.90;;;2.37;;
6356;SDS011;3211;53.452;-2.264;2023-03-14T11:31:24;4.03;;;2.00;;
6356;SDS011;3211;53.452;-2.264;2023-03-14T11:33:55;3.63;;;1.80;;
6356;SDS011;3211;53.452;-2.264;2023-03-14T11:36:26;3.50;;;2.17;;
6356;SDS011;3211;53.452;-2.264;2023-03-14T11:38:57;2.93;;;1.90;;
6356;SDS011;3211;53.452;-2.264;2023-03-14T11:41:27;9.83;;;2.50;;
6356;SDS011;3211;53.452;-2.264;2023-03-14T11:43:59;8.27;;;2.30;;
6356;SDS011;3211;53.452;-2.264;2023-03-14T11:46:31;5.63;;;2.37;;
6356;SDS011;3211;53.452;-2.264;2023-03-14T11:49:01;7.23;;;2.30;;
6356;SDS011;3211;53.452;-2.264;2023-03-14T11:51:34;9.83;;;2.30;;
6356;SDS011;3211;53.452;-2.264;2023-03-14T11:54:03;6.87;;;2.30;;
6356;SDS011;3211;53.452;-2.264;2023-03-14T11:56:42;6.87;;;2.37;;
6356;SDS011;3211;53.452;-2.264;2023-03-14T11:59:14;8.33;;;2.77;;
6356;SDS011;3211;53.452;-2.264;2023-03-14T12:01:47;4.23;;;1.90;;
6356;SDS011;3211;53.452;-2.264;2023-03-14T12:04:21;4.53;;;2.10;;
6356;SDS011;3211;53.452;-2.264;2023-03-14T12:06:56;4.80;;;2.17;;
6356;SDS011;3211;53.452;-2.264;2023-03-14T12:09:28;5.53;;;2.17;;
6356;SDS011;3211;53.452;-2.264;2023-03-14T12:11:57;6.20;;;2.03;;
6356;SDS011;3211;53.452;-2.264;2023-03-14T12:14:29;6.07;;;2.17;;
6356;SDS011;3211;53.452;-2.264;2023-03-14T12:16:58;4.73;;;2.13;;
6356;SDS011;3211;53.452;-2.264;2023-03-14T12:19:32;5.10;;;1.70;;
6356;SDS011;3211;53.452;-2.264;2023-03-14T12:25:12;6.13;;;1.87;;
6356;SDS011;3211;53.452;-2.264;2023-03-14T12:27:45;6.50;;;2.40;;
6356;SDS011;3211;53.452;-2.264;2023-03-14T12:30:28;15.93;;;2.40;;
6356;SDS011;3211;53.452;-2.264;2023-03-14T12:39:00;5.40;;;1.80;;
6356;SDS011;3211;53.452;-2.264;2023-03-14T12:41:36;5.27;;;2.50;;
6356;SDS011;3211;53.452;-2.264;2023-03-14T12:50:15;8.13;;;2.30;;
6356;SDS011;3211;53.452;-2.264;2023-03-14T12:56:00;6.80;;;2.10;;
6356;SDS011;3211;53.452;-2.264;2023-03-14T12:58:37;15.00;;;2.23;;
6356;SDS011;3211;53.452;-2.264;2023-03-14T13:01:16;5.93;;;1.80;;
6356;SDS011;3211;53.452;-2.264;2023-03-14T13:03:45;7.33;;;1.87;;
6356;SDS011;3211;53.452;-2.264;2023-03-14T13:12:16;5.10;;;1.83;;
6356;SDS011;3211;53.452;-2.264;2023-03-14T13:14:45;5.17;;;2.00;;
6356;SDS011;3211;53.452;-2.264;2023-03-14T13:17:15;7.47;;;2.37;;
6356;SDS011;3211;53.452;-2.264;2023-03-14T13:19:50;3.70;;;1.90;;
6356;SDS011;3211;53.452;-2.264;2023-03-14T13:22:21;7.57;;;2.53;;
6356;SDS011;3211;53.452;-2.264;2023-03-14T13:24:57;4.07;;;1.80;;
6356;SDS011;3211;53.452;-2.264;2023-03-14T13:27:25;7.50;;;2.30;;
6356;SDS011;3211;53.452;-2.264;2023-03-14T13:29:52;5.60;;;1.70;;
6356;SDS011;3211;53.452;-2.264;2023-03-14T13:32:22;4.77;;;1.77;;
6356;SDS011;3211;53.452;-2.264;2023-03-14T13:34:55;4.40;;;2.00;;
6356;SDS011;3211;53.452;-2.264;2023-03-14T13:37:23;6.70;;;2.20;;
6356;SDS011;3211;53.452;-2.264;2023-03-14T13:39:51;3.17;;;1.80;;
6356;SDS011;3211;53.452;-2.264;2023-03-14T13:42:20;8.63;;;1.67;;
6356;SDS011;3211;53.452;-2.264;2023-03-14T13:44:51;9.20;;;2.27;;
6356;SDS011;3211;53.452;-2.264;2023-03-14T13:47:20;4.93;;;1.90;;
6356;SDS011;3211;53.452;-2.264;2023-03-14T13:49:50;10.33;;;2.27;;
6356;SDS011;3211;53.452;-2.264;2023-03-14T13:52:21;5.00;;;1.73;;
6356;SDS011;3211;53.452;-2.264;2023-03-14T13:54:52;4.73;;;1.67;;
6356;SDS011;3211;53.452;-2.264;2023-03-14T13:57:19;7.40;;;2.00;;
6356;SDS011;3211;53.452;-2.264;2023-03-14T13:59:57;4.97;;;2.07;;
6356;SDS011;3211;53.452;-2.264;2023-03-14T14:02:26;9.80;;;1.90;;
6356;SDS011;3211;53.452;-2.264;2023-03-14T14:04:54;7.63;;;2.20;;
6356;SDS011;3211;53.452;-2.264;2023-03-14T14:07:22;3.10;;;1.30;;
6356;SDS011;3211;53.452;-2.264;2023-03-14T14:09:50;4.80;;;2.10;;
6356;SDS011;3211;53.452;-2.264;2023-03-14T14:12:19;4.57;;;2.17;;
6356;SDS011;3211;53.452;-2.264;2023-03-14T14:14:54;4.60;;;1.70;;
6356;SDS011;3211;53.452;-2.264;2023-03-14T14:17:25;4.10;;;1.73;;
6356;SDS011;3211;53.452;-2.264;2023-03-14T14:19:56;1.83;;;1.30;;
6356;SDS011;3211;53.452;-2.264;2023-03-14T14:22:24;4.83;;;1.73;;
6356;SDS011;3211;53.452;-2.264;2023-03-14T14:24:52;2.20;;;1.60;;
6356;SDS011;3211;53.452;-2.264;2023-03-14T14:27:23;3.57;;;1.50;;
6356;SDS011;3211;53.452;-2.264;2023-03-14T14:29:56;5.27;;;2.10;;
6356;SDS011;3211;53.452;-2.264;2023-03-14T14:32:26;6.27;;;1.93;;
6356;SDS011;3211;53.452;-2.264;2023-03-14T14:35:00;4.13;;;1.33;;
6356;SDS011;3211;53.452;-2.264;2023-03-14T14:37:29;8.10;;;1.80;;
6356;SDS011;3211;53.452;-2.264;2023-03-14T14:39:58;10.43;;;2.57;;
6356;SDS011;3211;53.452;-2.264;2023-03-14T14:42:29;12.77;;;1.90;;
6356;SDS011;3211;53.452;-2.264;2023-03-14T14:44:57;7.90;;;2.47;;
6356;SDS011;3211;53.452;-2.264;2023-03-14T14:47:26;6.93;;;2.67;;
6356;SDS011;3211;53.452;-2.264;2023-03-14T14:49:58;3.77;;;1.73;;
6356;SDS011;3211;53.452;-2.264;2023-03-14T14:52:37;5.33;;;2.33;;
6356;SDS011;3211;53.452;-2.264;2023-03-14T14:55:11;5.00;;;2.10;;
6356;SDS011;3211;53.452;-2.264;2023-03-14T14:57:47;3.17;;;1.83;;
6356;SDS011;3211;53.452;-2.264;2023-03-14T15:00:18;3.10;;;1.73;;
6356;SDS011;3211;53.452;-2.264;2023-03-14T15:02:48;2.13;;;1.30;;
6356;SDS011;3211;53.452;-2.264;2023-03-14T15:05:18;3.00;;;1.67;;
6356;SDS011;3211;53.452;-2.264;2023-03-14T15:07:46;4.90;;;2.10;;
6356;SDS011;3211;53.452;-2.264;2023-03-14T15:10:15;3.43;;;1.63;;
6356;SDS011;3211;53.452;-2.264;2023-03-14T15:12:44;3.90;;;2.00;;
6356;SDS011;3211;53.452;-2.264;2023-03-14T15:15:12;4.67;;;1.43;;
6356;SDS011;3211;53.452;-2.264;2023-03-14T15:17:39;3.10;;;1.60;;
6356;SDS011;3211;53.452;-2.264;2023-03-14T15:20:11;4.00;;;1.40;;
6356;SDS011;3211;53.452;-2.264;2023-03-14T15:22:39;4.40;;;1.40;;
6356;SDS011;3211;53.452;-2.264;2023-03-14T15:25:07;3.83;;;1.50;;
6356;SDS011;3211;53.452;-2.264;2023-03-14T15:27:35;2.77;;;1.30;;
6356;SDS011;3211;53.452;-2.264;2023-03-14T15:30:08;1.73;;;1.37;;
6356;SDS011;3211;53.452;-2.264;2023-03-14T15:32:36;5.63;;;1.57;;
6356;SDS011;3211;53.452;-2.264;2023-03-14T15:35:04;4.10;;;1.70;;